Time;durP1;ratioP1;P1;durP2;ratioP2;P2;SDS_P1;SDS_P2;PMS_P1;PMS_P2;Temp;Humidity;BMP_temperature;BMP_pressure;BME280_temperature;BME280_humidity;BME280_pressure;Samples;Min_cycle;Max_cycle;Signal;HPM_P1;HPM_P2
2023/07/18 00:00:43;;;;;;;3.38;2.75;;;;;;;;;;7303582;19;142190;-74
2023/07/18 00:03:10;;;;;;;3.28;2.80;;;;;;;;;;7304972;19;140476;-75
2023/07/18 00:05:37;;;;;;;3.88;2.95;;;;;;;;;;7304551;19;140633;-76
2023/07/18 00:08:04;;;;;;;3.10;2.80;;;;;;;;;;7302723;19;141162;-75
2023/07/18 00:10:32;;;;;;;3.00;2.70;;;;;;;;;;7302520;19;142450;-75
2023/07/18 00:12:59;;;;;;;3.13;2.70;;;;;;;;;;7304328;19;140993;-75
2023/07/18 00:15:26;;;;;;;2.80;2.53;;;;;;;;;;7304068;19;140811;-75
2023/07/18 00:17:53;;;;;;;3.05;2.60;;;;;;;;;;7304690;19;141058;-75
2023/07/18 00:20:22;;;;;;;2.70;2.45;;;;;;;;;;7303086;19;141725;-75
2023/07/18 00:22:49;;;;;;;3.00;2.40;;;;;;;;;;7304448;19;140730;-76
2023/07/18 00:25:19;;;;;;;2.47;2.28;;;;;;;;;;7304531;19;140921;-75
2023/07/18 00:27:47;;;;;;;2.90;2.60;;;;;;;;;;7303895;19;140653;-75
2023/07/18 00:30:14;;;;;;;3.10;2.45;;;;;;;;;;7303070;19;142465;-76
2023/07/18 00:32:44;;;;;;;3.00;2.65;;;;;;;;;;7304271;19;140617;-76
2023/07/18 00:35:11;;;;;;;;;;;;;;;;;;7305001;19;140894;-76
2023/07/18 00:40:42;;;;;;;3.05;2.65;;;;;;;;;;7300372;19;140584;-75
2023/07/18 00:43:14;;;;;;;3.17;2.70;;;;;;;;;;7304029;19;140563;-75
2023/07/18 00:45:41;;;;;;;3.22;2.42;;;;;;;;;;7302083;19;140534;-75
2023/07/18 00:48:11;;;;;;;;;;;;;;;;;;7303091;19;141694;-76
2023/07/18 00:50:39;;;;;;;3.00;2.63;;;;;;;;;;7304025;19;140782;-75
2023/07/18 00:53:06;;;;;;;2.75;2.40;;;;;;;;;;7303416;19;140567;-76
2023/07/18 00:55:33;;;;;;;2.55;2.20;;;;;;;;;;7303383;19;140592;-75
2023/07/18 00:58:02;;;;;;;2.90;2.58;;;;;;;;;;7303224;19;141443;-77
2023/07/18 01:00:29;;;;;;;2.65;2.30;;;;;;;;;;7301855;19;142101;-78
2023/07/18 01:02:56;;;;;;;2.97;2.50;;;;;;;;;;7303078;19;140579;-76
2023/07/18 01:05:23;;;;;;;2.60;2.40;;;;;;;;;;7302694;19;140462;-76
2023/07/18 01:07:50;;;;;;;3.13;2.55;;;;;;;;;;7302637;19;141684;-76
2023/07/18 01:10:23;;;;;;;2.50;2.30;;;;;;;;;;7302723;19;140828;-77
2023/07/18 01:12:52;;;;;;;2.42;2.20;;;;;;;;;;7303263;19;140497;-77
2023/07/18 01:15:20;;;;;;;2.83;2.55;;;;;;;;;;7302089;19;140632;-76
2023/07/18 01:17:47;;;;;;;2.80;2.30;;;;;;;;;;7300704;19;141218;-77
2023/07/18 01:20:18;;;;;;;2.40;2.20;;;;;;;;;;7301131;19;141838;-76
2023/07/18 01:22:46;;;;;;;3.00;2.40;;;;;;;;;;7301629;19;140548;-77
2023/07/18 01:25:16;;;;;;;3.33;2.70;;;;;;;;;;7302874;19;140792;-77
2023/07/18 01:27:47;;;;;;;2.30;2.08;;;;;;;;;;7302798;19;140564;-77
2023/07/18 01:30:14;;;;;;;2.75;2.40;;;;;;;;;;7300875;19;142628;-77
2023/07/18 01:32:44;;;;;;;2.67;2.20;;;;;;;;;;7302230;19;140464;-77
2023/07/18 01:35:11;;;;;;;2.50;2.30;;;;;;;;;;7301436;19;140548;-76
2023/07/18 01:37:38;;;;;;;3.53;2.28;;;;;;;;;;7302170;19;141925;-77
2023/07/18 01:40:06;;;;;;;2.80;2.50;;;;;;;;;;7302071;19;142721;-76
2023/07/18 01:42:34;;;;;;;2.90;2.22;;;;;;;;;;7301605;19;140911;-75
2023/07/18 01:45:03;;;;;;;2.97;2.40;;;;;;;;;;7301101;19;140539;-76
2023/07/18 01:47:33;;;;;;;4.35;2.40;;;;;;;;;;7300803;19;140995;-77
2023/07/18 01:50:03;;;;;;;3.00;2.40;;;;;;;;;;7299457;19;142128;-76
2023/07/18 01:52:31;;;;;;;2.45;2.20;;;;;;;;;;7301693;19;140626;-75
2023/07/18 01:54:59;;;;;;;2.55;2.13;;;;;;;;;;7301099;19;140711;-75
2023/07/18 01:57:28;;;;;;;2.22;2.03;;;;;;;;;;7301223;19;141711;-75
2023/07/18 01:59:57;;;;;;;2.50;2.30;;;;;;;;;;7301259;19;141975;-76
2023/07/18 02:02:24;;;;;;;3.13;2.50;;;;;;;;;;7300258;19;140485;-75
2023/07/18 02:04:51;;;;;;;2.60;2.30;;;;;;;;;;7301215;19;140666;-75
2023/07/18 02:07:18;;;;;;;3.33;2.30;;;;;;;;;;7300849;19;141192;-75
2023/07/18 02:09:45;;;;;;;2.30;2.10;;;;;;;;;;7300160;19;141927;-76
2023/07/18 02:12:12;;;;;;;2.92;2.33;;;;;;;;;;7300956;19;142196;-75
2023/07/18 02:14:39;;;;;;;2.60;2.40;;;;;;;;;;7300421;19;141112;-75
2023/07/18 02:17:08;;;;;;;2.95;2.40;;;;;;;;;;7299432;19;141141;-75
2023/07/18 02:19:38;;;;;;;2.70;2.10;;;;;;;;;;7298437;19;142042;-76
2023/07/18 02:22:05;;;;;;;2.13;1.93;;;;;;;;;;7300870;19;140563;-78
2023/07/18 02:24:32;;;;;;;2.78;2.22;;;;;;;;;;7301242;19;140664;-79
2023/07/18 02:27:00;;;;;;;1.92;1.83;;;;;;;;;;7300081;19;141088;-76
2023/07/18 02:29:27;;;;;;;2.70;2.17;;;;;;;;;;7300771;19;142691;-76
2023/07/18 02:31:54;;;;;;;2.40;2.20;;;;;;;;;;7307862;19;140580;-77
2023/07/18 02:34:22;;;;;;;4.60;2.60;;;;;;;;;;7307781;19;140614;-76
2023/07/18 02:36:49;;;;;;;3.90;2.60;;;;;;;;;;7307010;19;140456;-77
2023/07/18 02:39:16;;;;;;;4.70;2.40;;;;;;;;;;7307130;19;142593;-76
2023/07/18 02:41:44;;;;;;;3.40;2.40;;;;;;;;;;7307169;19;140636;-77
2023/07/18 02:44:11;;;;;;;2.17;1.98;;;;;;;;;;7305964;19;140555;-75
2023/07/18 02:46:38;;;;;;;2.50;2.13;;;;;;;;;;7306348;19;140667;-75
2023/07/18 02:49:05;;;;;;;3.50;2.58;;;;;;;;;;7306676;19;142178;-75
2023/07/18 02:51:33;;;;;;;3.92;2.70;;;;;;;;;;7307194;19;141674;-75
2023/07/18 02:54:00;;;;;;;3.00;2.33;;;;;;;;;;7306959;19;140656;-75
2023/07/18 02:56:27;;;;;;;2.28;1.95;;;;;;;;;;7306752;19;140666;-75
2023/07/18 02:58:54;;;;;;;2.15;1.95;;;;;;;;;;7306271;19;142164;-75
2023/07/18 03:01:21;;;;;;;3.55;2.53;;;;;;;;;;7306039;19;140668;-76
2023/07/18 03:03:48;;;;;;;2.22;1.88;;;;;;;;;;7306856;19;140623;-75
2023/07/18 03:06:16;;;;;;;2.38;2.17;;;;;;;;;;7304547;19;141248;-76
2023/07/18 03:08:43;;;;;;;2.58;2.05;;;;;;;;;;7306467;19;142124;-75
2023/07/18 03:11:10;;;;;;;2.90;2.35;;;;;;;;;;7306866;19;140422;-76
2023/07/18 03:13:37;;;;;;;2.38;2.10;;;;;;;;;;7306546;19;140655;-75
2023/07/18 03:16:04;;;;;;;2.80;2.30;;;;;;;;;;7305244;19;141126;-75
2023/07/18 03:18:32;;;;;;;3.05;2.22;;;;;;;;;;7306004;19;142751;-76
2023/07/18 03:20:59;;;;;;;2.10;1.90;;;;;;;;;;7306156;19;140504;-76
2023/07/18 03:23:26;;;;;;;2.65;2.17;;;;;;;;;;7306250;19;140358;-76
2023/07/18 03:25:53;;;;;;;2.45;2.05;;;;;;;;;;7305677;19;140709;-75
2023/07/18 03:28:21;;;;;;;3.33;2.15;;;;;;;;;;7305859;19;142805;-75
2023/07/18 03:30:48;;;;;;;3.60;2.25;;;;;;;;;;7304760;19;140929;-75
2023/07/18 03:33:15;;;;;;;2.90;2.35;;;;;;;;;;7304280;19;140635;-75
2023/07/18 03:35:42;;;;;;;2.20;1.92;;;;;;;;;;7308106;19;140835;-76
2023/07/18 03:40:58;;;;;;;2.65;2.03;;;;;;;;;;7288511;19;143242;-76
2023/07/18 03:43:25;;;;;;;3.13;2.28;;;;;;;;;;7305678;19;140482;-75
2023/07/18 03:45:52;;;;;;;3.35;2.50;;;;;;;;;;7304765;19;140507;-75
2023/07/18 03:48:19;;;;;;;2.20;2.00;;;;;;;;;;7305113;19;141057;-76
2023/07/18 03:50:46;;;;;;;2.35;2.08;;;;;;;;;;7305452;19;140508;-76
2023/07/18 03:53:14;;;;;;;3.22;2.20;;;;;;;;;;7305145;19;140380;-76
2023/07/18 03:55:41;;;;;;;2.38;1.92;;;;;;;;;;7304437;19;141346;-76
2023/07/18 03:58:08;;;;;;;2.65;2.15;;;;;;;;;;7304743;19;141890;-76
2023/07/18 04:00:35;;;;;;;4.10;2.30;;;;;;;;;;7304665;19;140696;-76
2023/07/18 04:03:02;;;;;;;3.25;2.38;;;;;;;;;;7303745;19;140831;-77
2023/07/18 04:05:29;;;;;;;2.25;2.00;;;;;;;;;;7304983;19;141339;-77
2023/07/18 04:07:56;;;;;;;3.25;2.10;;;;;;;;;;7304081;19;142022;-76
2023/07/18 04:10:23;;;;;;;2.83;2.53;;;;;;;;;;7305099;19;140516;-77
2023/07/18 04:12:51;;;;;;;2.53;2.10;;;;;;;;;;7303481;19;140681;-76
2023/07/18 04:15:17;;;;;;;2.20;2.00;;;;;;;;;;7304155;19;141957;-76
2023/07/18 04:17:45;;;;;;;3.22;2.13;;;;;;;;;;7302721;19;141547;-75
2023/07/18 04:20:13;;;;;;;2.35;1.92;;;;;;;;;;7302790;19;141449;-75
2023/07/18 04:22:40;;;;;;;2.47;2.20;;;;;;;;;;7304258;19;140512;-76
2023/07/18 04:25:07;;;;;;;2.50;1.95;;;;;;;;;;7303931;19;140705;-75
2023/07/18 04:27:35;;;;;;;2.47;2.10;;;;;;;;;;7304173;19;142000;-76
2023/07/18 04:30:02;;;;;;;2.78;2.20;;;;;;;;;;7303990;19;140929;-76
2023/07/18 04:32:29;;;;;;;2.47;2.22;;;;;;;;;;7303463;19;140659;-76
2023/07/18 04:34:56;;;;;;;2.15;1.85;;;;;;;;;;7303641;19;141343;-76
2023/07/18 04:37:23;;;;;;;2.10;1.90;;;;;;;;;;7303071;19;141885;-75
2023/07/18 04:39:50;;;;;;;2.42;2.00;;;;;;;;;;7303694;19;140664;-76
2023/07/18 04:42:17;;;;;;;2.90;1.98;;;;;;;;;;7303871;19;140564;-76
2023/07/18 04:44:44;;;;;;;2.63;1.98;;;;;;;;;;7303491;19;141683;-77
2023/07/18 04:47:12;;;;;;;3.13;2.25;;;;;;;;;;7302828;19;141087;-75
2023/07/18 04:49:39;;;;;;;2.10;1.90;;;;;;;;;;7303643;19;140572;-75
2023/07/18 04:52:07;;;;;;;2.75;2.15;;;;;;;;;;7303065;19;140633;-76
2023/07/18 04:57:24;;;;;;;2.90;2.10;;;;;;;;;;7293182;19;144128;-76
2023/07/18 04:59:51;;;;;;;2.25;1.98;;;;;;;;;;7303870;19;140688;-76
2023/07/18 05:02:19;;;;;;;2.30;2.05;;;;;;;;;;7302385;19;140601;-76
2023/07/18 05:04:46;;;;;;;2.25;1.90;;;;;;;;;;7302698;19;141054;-73
2023/07/18 05:07:15;;;;;;;2.60;1.95;;;;;;;;;;7303420;19;140808;-76
2023/07/18 05:09:42;;;;;;;3.00;2.10;;;;;;;;;;7302748;19;140582;-76
2023/07/18 05:12:09;;;;;;;3.45;2.28;;;;;;;;;;7302634;19;140621;-76
2023/07/18 05:14:36;;;;;;;2.30;2.10;;;;;;;;;;7302577;19;141050;-76
2023/07/18 05:17:03;;;;;;;3.90;2.30;;;;;;;;;;7301915;19;142131;-76
2023/07/18 05:19:30;;;;;;;4.13;2.28;;;;;;;;;;7302500;19;140527;-77
2023/07/18 05:21:57;;;;;;;3.50;2.38;;;;;;;;;;7301022;19;140836;-77
2023/07/18 05:24:24;;;;;;;2.50;1.80;;;;;;;;;;7302401;19;140685;-76
2023/07/18 05:26:52;;;;;;;2.13;1.88;;;;;;;;;;7302027;19;142619;-76
2023/07/18 05:29:19;;;;;;;2.58;2.30;;;;;;;;;;7302846;19;140780;-76
2023/07/18 05:31:46;;;;;;;2.53;2.10;;;;;;;;;;7301156;19;140592;-77
2023/07/18 05:34:13;;;;;;;2.20;2.00;;;;;;;;;;7301979;19;141431;-77
2023/07/18 05:36:40;;;;;;;2.28;1.90;;;;;;;;;;7301979;19;142017;-77
2023/07/18 05:39:07;;;;;;;2.90;2.05;;;;;;;;;;7301714;19;140446;-77
2023/07/18 05:41:34;;;;;;;2.40;2.08;;;;;;;;;;7302128;19;140602;-76
2023/07/18 05:44:01;;;;;;;2.45;2.17;;;;;;;;;;7301561;19;140735;-76
2023/07/18 05:46:29;;;;;;;3.60;2.30;;;;;;;;;;7299052;19;142023;-77
2023/07/18 05:48:56;;;;;;;1.90;1.80;;;;;;;;;;7301827;19;140447;-77
2023/07/18 05:51:23;;;;;;;1.98;1.77;;;;;;;;;;7301373;19;140438;-76
2023/07/18 05:53:50;;;;;;;2.17;1.98;;;;;;;;;;7300662;19;141487;-77
2023/07/18 05:56:17;;;;;;;2.80;2.00;;;;;;;;;;7300914;19;141789;-78
2023/07/18 05:58:44;;;;;;;2.08;1.83;;;;;;;;;;7301748;19;140692;-78
2023/07/18 06:01:12;;;;;;;2.35;1.85;;;;;;;;;;7300303;19;140552;-78
2023/07/18 06:03:39;;;;;;;2.20;2.00;;;;;;;;;;7299159;19;141306;-78
2023/07/18 06:06:07;;;;;;;2.90;1.98;;;;;;;;;;7298994;19;142485;-77
2023/07/18 06:08:37;;;;;;;2.80;2.05;;;;;;;;;;7299927;19;140915;-78
2023/07/18 06:11:04;;;;;;;3.10;2.13;;;;;;;;;;7300314;19;140458;-78
2023/07/18 06:13:31;;;;;;;2.05;1.85;;;;;;;;;;7300234;19;141800;-77
2023/07/18 06:15:58;;;;;;;2.50;1.95;;;;;;;;;;7299724;19;142086;-78
2023/07/18 06:18:25;;;;;;;2.42;1.80;;;;;;;;;;7299897;19;140645;-78
2023/07/18 06:20:52;;;;;;;1.77;1.60;;;;;;;;;;7300080;19;140441;-78
2023/07/18 06:23:19;;;;;;;1.73;1.63;;;;;;;;;;7300454;19;141097;-77
2023/07/18 06:25:47;;;;;;;1.98;1.70;;;;;;;;;;7300523;19;140886;-75
2023/07/18 06:28:14;;;;;;;2.10;1.90;;;;;;;;;;7300006;19;140523;-74
2023/07/18 06:30:41;;;;;;;2.03;1.83;;;;;;;;;;7300622;19;140773;-74
2023/07/18 06:33:08;;;;;;;1.83;1.73;;;;;;;;;;7299630;19;141283;-74
2023/07/18 06:35:35;;;;;;;2.05;1.85;;;;;;;;;;7299994;19;142806;-74
2023/07/18 06:38:02;;;;;;;1.85;1.70;;;;;;;;;;7300809;19;141318;-74
2023/07/18 06:40:29;;;;;;;2.13;1.60;;;;;;;;;;7299989;19;140651;-74
2023/07/18 06:42:56;;;;;;;1.90;1.70;;;;;;;;;;7299330;19;141301;-74
2023/07/18 06:45:24;;;;;;;1.67;1.58;;;;;;;;;;7299557;19;142176;-74
2023/07/18 06:47:51;;;;;;;1.70;1.60;;;;;;;;;;7299607;19;140408;-73
2023/07/18 06:50:18;;;;;;;2.00;1.73;;;;;;;;;;7299692;19;140513;-74
2023/07/18 06:52:45;;;;;;;1.48;1.38;;;;;;;;;;7299717;19;140525;-73
2023/07/18 06:55:12;;;;;;;1.63;1.52;;;;;;;;;;7299534;19;142244;-72
2023/07/18 06:57:39;;;;;;;1.55;1.45;;;;;;;;;;7299131;19;140375;-74
2023/07/18 07:00:11;;;;;;;1.77;1.67;;;;;;;;;;7298202;19;140671;-72
2023/07/18 07:02:38;;;;;;;1.60;1.50;;;;;;;;;;7298348;19;141253;-72
2023/07/18 07:05:06;;;;;;;1.75;1.65;;;;;;;;;;7298677;19;140637;-72
2023/07/18 07:07:33;;;;;;;1.60;1.50;;;;;;;;;;7299548;19;140653;-73
2023/07/18 07:10:00;;;;;;;1.88;1.50;;;;;;;;;;7299084;19;140572;-73
2023/07/18 07:12:27;;;;;;;1.75;1.52;;;;;;;;;;7299117;19;142124;-72
2023/07/18 07:15:02;;;;;;;1.98;1.60;;;;;;;;;;7298715;19;141859;-72
2023/07/18 07:17:29;;;;;;;2.58;1.77;;;;;;;;;;7305230;19;140426;-72
2023/07/18 07:19:57;;;;;;;1.60;1.50;;;;;;;;;;7306575;19;140576;-72
2023/07/18 07:22:24;;;;;;;1.60;1.50;;;;;;;;;;7306235;19;140863;-72
2023/07/18 07:24:51;;;;;;;1.42;1.33;;;;;;;;;;7305584;19;142597;-72
2023/07/18 07:27:19;;;;;;;2.22;1.63;;;;;;;;;;7306386;19;140597;-72
2023/07/18 07:29:46;;;;;;;1.55;1.35;;;;;;;;;;7306135;19;140696;-72
2023/07/18 07:32:13;;;;;;;2.72;1.92;;;;;;;;;;7305251;19;141105;-72
2023/07/18 07:34:41;;;;;;;1.75;1.63;;;;;;;;;;7305706;19;142816;-73
2023/07/18 07:37:08;;;;;;;1.67;1.40;;;;;;;;;;7306016;19;140623;-73
2023/07/18 07:39:36;;;;;;;2.13;1.60;;;;;;;;;;7305276;19;140385;-73
2023/07/18 07:42:03;;;;;;;1.67;1.50;;;;;;;;;;7305203;19;141286;-73
2023/07/18 07:44:30;;;;;;;1.48;1.38;;;;;;;;;;7305233;19;142126;-74
2023/07/18 07:46:57;;;;;;;1.48;1.38;;;;;;;;;;7305460;19;140641;-73
2023/07/18 07:49:24;;;;;;;1.58;1.48;;;;;;;;;;7305226;19;140770;-73
2023/07/18 07:51:51;;;;;;;1.70;1.60;;;;;;;;;;7305080;19;142980;-73
2023/07/18 07:54:18;;;;;;;1.58;1.48;;;;;;;;;;7304913;19;142666;-74
2023/07/18 07:56:45;;;;;;;2.00;1.80;;;;;;;;;;7304941;19;140866;-74
2023/07/18 07:59:12;;;;;;;2.00;1.70;;;;;;;;;;7304927;19;140762;-74
2023/07/18 08:01:39;;;;;;;1.90;1.70;;;;;;;;;;7304558;19;141091;-74
2023/07/18 08:04:07;;;;;;;2.10;1.90;;;;;;;;;;7304173;19;142149;-73
2023/07/18 08:12:25;;;;;;;2.75;1.75;;;;;;;;;;7304380;19;140836;-74
2023/07/18 08:14:52;;;;;;;;;;;;;;;;;;7304934;19;140703;-74
2023/07/18 08:27:13;;;;;;;3.53;2.22;;;;;;;;;;7292999;19;141096;-72
2023/07/18 08:29:42;;;;;;;1.90;1.65;;;;;;;;;;7304610;19;141033;-72
2023/07/18 08:32:09;;;;;;;4.10;2.22;;;;;;;;;;7304014;19;140800;-72
2023/07/18 08:41:10;;;;;;;2.50;2.17;;;;;;;;;;7296127;19;141952;-73
2023/07/18 08:43:37;;;;;;;2.47;1.90;;;;;;;;;;7302853;19;140644;-73
2023/07/18 08:46:07;;;;;;;1.95;1.77;;;;;;;;;;7303605;19;143270;-73
2023/07/18 08:48:34;;;;;;;2.20;2.00;;;;;;;;;;7302877;19;140892;-73
2023/07/18 08:51:08;;;;;;;2.40;2.20;;;;;;;;;;7303801;19;140672;-74
2023/07/18 08:53:35;;;;;;;3.20;2.10;;;;;;;;;;7302939;19;140769;-74
2023/07/18 08:56:05;;;;;;;2.58;2.30;;;;;;;;;;7303424;19;140950;-73
2023/07/18 08:58:39;;;;;;;3.88;2.10;;;;;;;;;;7302014;19;142067;-74
2023/07/18 09:01:08;;;;;;;3.20;2.50;;;;;;;;;;7303977;19;140681;-73
2023/07/18 09:15:57;;;;;;;5.45;2.70;;;;;;;;;;7302376;19;140506;-74
2023/07/18 09:18:57;;;;;;;3.15;2.33;;;;;;;;;;7300941;19;140744;-73
2023/07/18 09:21:25;;;;;;;4.35;2.75;;;;;;;;;;7301866;19;142448;-73
2023/07/18 09:27:21;;;;;;;2.97;2.53;;;;;;;;;;7224719;19;145688;-74
2023/07/18 09:29:48;;;;;;;4.88;2.50;;;;;;;;;;7302066;19;141210;-74
2023/07/18 09:35:31;;;;;;;3.58;2.75;;;;;;;;;;7280806;19;142822;-77
2023/07/18 09:37:58;;;;;;;3.15;2.30;;;;;;;;;;7299484;19;140609;-77
2023/07/18 09:40:26;;;;;;;3.13;2.72;;;;;;;;;;7298291;19;141007;-76
2023/07/18 09:42:54;;;;;;;2.92;2.40;;;;;;;;;;7300847;19;142086;-76
2023/07/18 09:45:21;;;;;;;3.28;2.50;;;;;;;;;;7301843;19;140386;-75
2023/07/18 09:47:49;;;;;;;4.50;2.75;;;;;;;;;;7301778;19;140723;-76
2023/07/18 09:50:36;;;;;;;2.95;2.55;;;;;;;;;;7301285;19;140781;-75
2023/07/18 09:53:32;;;;;;;3.13;2.38;;;;;;;;;;7293897;19;144066;-76
2023/07/18 09:56:00;;;;;;;3.95;2.53;;;;;;;;;;7301833;19;140615;-74
2023/07/18 09:58:28;;;;;;;3.60;2.58;;;;;;;;;;7301787;19;140644;-75
2023/07/18 10:00:56;;;;;;;2.80;2.50;;;;;;;;;;7301640;19;141228;-74
2023/07/18 10:03:23;;;;;;;3.55;2.63;;;;;;;;;;7301623;19;140739;-75
2023/07/18 10:05:50;;;;;;;3.72;2.55;;;;;;;;;;7301495;19;140421;-75
2023/07/18 10:08:17;;;;;;;2.92;2.63;;;;;;;;;;7301774;19;140510;-75
2023/07/18 10:11:07;;;;;;;3.97;3.00;;;;;;;;;;7301717;19;141418;-75
2023/07/18 10:13:53;;;;;;;3.95;2.67;;;;;;;;;;7300086;19;140815;-76
2023/07/18 10:16:22;;;;;;;4.55;2.75;;;;;;;;;;7301690;19;140511;-76
2023/07/18 10:18:50;;;;;;;3.88;3.00;;;;;;;;;;7300723;19;141316;-76
2023/07/18 10:21:30;;;;;;;3.17;2.85;;;;;;;;;;7301081;19;142035;-75
2023/07/18 10:23:58;;;;;;;3.17;2.67;;;;;;;;;;7300963;19;142180;-75
2023/07/18 10:26:31;;;;;;;4.03;3.13;;;;;;;;;;7301423;19;140844;-75
2023/07/18 10:28:59;;;;;;;5.32;3.10;;;;;;;;;;7301604;19;140900;-76
2023/07/18 10:31:30;;;;;;;3.83;3.15;;;;;;;;;;7300583;19;141240;-75
2023/07/18 10:34:09;;;;;;;3.75;3.10;;;;;;;;;;7300223;19;141067;-75
2023/07/18 10:36:37;;;;;;;3.42;2.92;;;;;;;;;;7301003;19;140592;-75
2023/07/18 10:39:12;;;;;;;3.85;2.60;;;;;;;;;;7301102;19;141002;-74
2023/07/18 10:41:43;;;;;;;5.18;3.00;;;;;;;;;;7300988;19;140967;-73
2023/07/18 10:44:12;;;;;;;3.92;3.10;;;;;;;;;;7301963;19;140738;-73
2023/07/18 10:46:41;;;;;;;4.53;3.08;;;;;;;;;;7303087;19;140731;-73
2023/07/18 10:49:08;;;;;;;4.07;3.00;;;;;;;;;;7303946;19;142108;-76
2023/07/18 12:00:12;;;;;;;4.32;3.20;;;;;;;;;;7261709;19;144131;-74
2023/07/18 12:02:43;;;;;;;4.10;3.22;;;;;;;;;;7301311;19;140810;-74
2023/07/18 13:04:04;;;;;;;3.70;2.50;;;;;;;;;;7268045;19;143103;-72
2023/07/18 13:06:32;;;;;;;3.88;2.65;;;;;;;;;;7303600;19;140704;-72
2023/07/18 13:09:02;;;;;;;4.22;2.80;;;;;;;;;;7304394;19;140685;-72
2023/07/18 13:11:30;;;;;;;3.40;2.72;;;;;;;;;;7305056;19;141195;-73
2023/07/18 13:13:57;;;;;;;3.45;2.63;;;;;;;;;;7302279;19;140788;-72
2023/07/18 13:16:25;;;;;;;2.80;2.50;;;;;;;;;;7301862;19;140765;-74
2023/07/18 13:18:52;;;;;;;3.22;2.72;;;;;;;;;;7302321;19;140976;-72
2023/07/18 13:43:55;;;;;;;3.25;2.83;;;;;;;;;;7249559;19;144205;-72
2023/07/18 13:46:23;;;;;;;3.22;2.50;;;;;;;;;;7301072;19;140796;-72
2023/07/18 13:48:52;;;;;;;4.28;2.88;;;;;;;;;;7300778;19;140815;-72
2023/07/18 13:51:19;;;;;;;3.35;2.58;;;;;;;;;;7300561;19;140653;-72
2023/07/18 13:53:48;;;;;;;4.10;2.85;;;;;;;;;;7301401;19;140909;-73
2023/07/18 13:56:15;;;;;;;3.92;2.72;;;;;;;;;;7302483;19;141016;-73
2023/07/18 13:58:43;;;;;;;3.38;2.72;;;;;;;;;;7299948;19;141904;-73
2023/07/18 14:20:35;;;;;;;4.57;2.72;;;;;;;;;;7271016;19;147415;-73
2023/07/18 14:23:02;;;;;;;4.93;3.00;;;;;;;;;;7301282;19;140901;-72
2023/07/18 14:39:22;;;;;;;5.60;3.17;;;;;;;;;;7231783;19;143812;-74
2023/07/18 14:52:33;;;;;;;4.25;2.47;;;;;;;;;;7301262;19;140962;-73
2023/07/18 14:55:16;;;;;;;5.55;2.83;;;;;;;;;;7298459;19;140814;-73
2023/07/18 14:57:44;;;;;;;3.45;2.30;;;;;;;;;;7297847;19;140643;-72
2023/07/18 15:00:12;;;;;;;4.50;2.55;;;;;;;;;;7299430;19;141908;-72
2023/07/18 15:02:39;;;;;;;3.47;2.22;;;;;;;;;;7299970;19;140864;-72
2023/07/18 15:05:08;;;;;;;3.38;2.45;;;;;;;;;;7299193;19;140602;-72
2023/07/18 15:07:36;;;;;;;3.58;2.35;;;;;;;;;;7299648;19;142313;-72
2023/07/18 15:10:03;;;;;;;2.72;2.20;;;;;;;;;;7299722;19;141021;-72
2023/07/18 15:28:19;;;;;;;4.65;2.50;;;;;;;;;;7278334;19;142679;-73
2023/07/18 15:31:07;;;;;;;3.95;2.33;;;;;;;;;;7297068;19;140708;-73
2023/07/18 15:33:56;;;;;;;3.15;2.13;;;;;;;;;;7299189;19;140723;-73
2023/07/18 15:36:24;;;;;;;3.20;2.38;;;;;;;;;;7295706;19;140588;-74
2023/07/18 15:38:52;;;;;;;3.10;2.15;;;;;;;;;;7302223;19;140615;-74
2023/07/18 15:41:20;;;;;;;2.20;1.88;;;;;;;;;;7306194;19;141050;-73
2023/07/18 15:43:47;;;;;;;3.30;2.28;;;;;;;;;;7305477;19;143024;-73
2023/07/18 15:46:14;;;;;;;3.75;2.10;;;;;;;;;;7306466;19;140555;-73
2023/07/18 15:48:44;;;;;;;3.42;2.13;;;;;;;;;;7305912;19;140607;-73
2023/07/18 15:51:11;;;;;;;3.03;2.33;;;;;;;;;;7302699;19;141252;-73
2023/07/18 15:53:38;;;;;;;4.43;1.92;;;;;;;;;;7305376;19;140926;-73
2023/07/18 16:29:24;;;;;;;4.00;2.20;;;;;;;;;;7272976;19;142927;-73
2023/07/18 16:44:21;;;;;;;3.35;1.80;;;;;;;;;;7228584;19;143496;-73
2023/07/18 16:46:49;;;;;;;3.42;2.13;;;;;;;;;;7302175;19;140866;-73
2023/07/18 16:49:16;;;;;;;3.53;2.10;;;;;;;;;;7301341;19;140562;-74
2023/07/18 16:52:18;;;;;;;9.05;3.67;;;;;;;;;;7279946;19;142837;-73
2023/07/18 16:54:45;;;;;;;3.17;1.98;;;;;;;;;;7302649;19;140812;-74
2023/07/18 16:57:13;;;;;;;4.28;2.30;;;;;;;;;;7302137;19;140869;-73
2023/07/18 16:59:40;;;;;;;3.60;2.42;;;;;;;;;;7302800;19;141065;-73
2023/07/18 17:02:08;;;;;;;4.93;1.90;;;;;;;;;;7303518;19;140754;-73
2023/07/18 17:04:35;;;;;;;3.13;2.00;;;;;;;;;;7303857;19;140570;-73
2023/07/18 17:07:03;;;;;;;2.28;1.63;;;;;;;;;;7302900;19;140820;-74
2023/07/18 17:09:30;;;;;;;2.88;1.95;;;;;;;;;;7304493;19;140867;-74
2023/07/18 17:11:57;;;;;;;3.00;1.83;;;;;;;;;;7304997;19;142709;-75
2023/07/18 17:14:24;;;;;;;2.65;1.73;;;;;;;;;;7306195;19;140865;-73
2023/07/18 17:16:51;;;;;;;2.42;1.83;;;;;;;;;;7312344;19;140471;-75
2023/07/18 17:19:18;;;;;;;1.88;1.63;;;;;;;;;;7336840;19;139404;-75
2023/07/18 17:21:45;;;;;;;3.42;1.83;;;;;;;;;;7334681;19;140719;-74
2023/07/18 17:24:12;;;;;;;2.03;1.60;;;;;;;;;;7336122;19;139430;-74
2023/07/18 17:26:39;;;;;;;2.28;1.65;;;;;;;;;;7334628;19;140009;-75
2023/07/18 17:29:06;;;;;;;3.03;1.90;;;;;;;;;;7333720;19;140858;-74
2023/07/18 17:31:33;;;;;;;2.92;1.77;;;;;;;;;;7306038;19;141877;-73
2023/07/18 17:34:01;;;;;;;3.63;1.88;;;;;;;;;;7302925;19;140423;-75
2023/07/18 17:42:20;;;;;;;5.35;2.42;;;;;;;;;;7285672;19;143670;-75
2023/07/18 17:45:00;;;;;;;6.45;2.65;;;;;;;;;;7301212;19;140812;-76
2023/07/18 17:47:28;;;;;;;3.55;1.88;;;;;;;;;;7301234;19;140705;-77
2023/07/18 17:49:55;;;;;;;4.57;1.88;;;;;;;;;;7301899;19;140897;-77
2023/07/18 17:52:23;;;;;;;4.07;2.22;;;;;;;;;;7301210;19;142136;-76
2023/07/18 17:54:49;;;;;;;4.35;1.92;;;;;;;;;;7303101;19;141854;-75
2023/07/18 17:57:17;;;;;;;4.55;2.13;;;;;;;;;;7301890;19;140596;-75
2023/07/18 17:59:44;;;;;;;4.63;2.45;;;;;;;;;;7300925;19;141166;-74
2023/07/18 18:02:11;;;;;;;4.32;1.88;;;;;;;;;;7298374;19;142023;-75
2023/07/18 18:04:38;;;;;;;2.20;1.75;;;;;;;;;;7301548;19;140390;-74
2023/07/18 18:07:05;;;;;;;5.00;2.10;;;;;;;;;;7301018;19;140582;-74
2023/07/18 18:09:33;;;;;;;5.57;2.13;;;;;;;;;;7301234;19;140768;-74
2023/07/18 18:12:00;;;;;;;5.13;2.70;;;;;;;;;;7301853;19;140841;-75
2023/07/18 18:14:26;;;;;;;3.75;2.00;;;;;;;;;;7302170;19;140581;-74
2023/07/18 18:16:54;;;;;;;4.72;1.95;;;;;;;;;;7299994;19;140992;-75
2023/07/18 18:19:21;;;;;;;4.10;2.05;;;;;;;;;;7299102;19;141013;-74
2023/07/18 18:21:48;;;;;;;4.30;2.17;;;;;;;;;;7299853;19;142051;-72
2023/07/18 18:24:15;;;;;;;6.40;2.22;;;;;;;;;;7300067;19;140587;-73
2023/07/18 18:26:46;;;;;;;3.33;1.63;;;;;;;;;;7301163;19;140484;-73
2023/07/18 18:29:15;;;;;;;3.88;2.13;;;;;;;;;;7300809;19;140981;-74
2023/07/18 18:46:58;;;;;;;3.85;1.85;;;;;;;;;;7290717;19;145438;-74
2023/07/18 18:49:26;;;;;;;3.22;1.60;;;;;;;;;;7301031;19;140679;-73
2023/07/18 18:51:53;;;;;;;2.35;1.70;;;;;;;;;;7297206;19;142027;-74
2023/07/18 18:54:20;;;;;;;3.22;1.75;;;;;;;;;;7297344;19;143099;-73
2023/07/18 18:56:49;;;;;;;3.80;1.80;;;;;;;;;;7294912;19;140863;-73
2023/07/18 18:59:16;;;;;;;3.38;1.80;;;;;;;;;;7294620;19;140853;-74
2023/07/18 19:01:46;;;;;;;3.42;1.90;;;;;;;;;;7294823;19;140941;-73
2023/07/18 19:04:14;;;;;;;4.38;2.10;;;;;;;;;;7292681;19;141913;-73
2023/07/18 19:06:43;;;;;;;3.25;1.80;;;;;;;;;;7294031;19;141245;-73
2023/07/18 19:09:10;;;;;;;3.03;1.88;;;;;;;;;;7296674;19;141118;-74
2023/07/18 19:11:37;;;;;;;3.00;1.90;;;;;;;;;;7298982;19;141220;-74
2023/07/18 19:14:04;;;;;;;2.45;1.70;;;;;;;;;;7305639;19;142105;-75
2023/07/18 19:16:31;;;;;;;2.20;1.52;;;;;;;;;;7307221;19;140438;-74
2023/07/18 19:19:07;;;;;;;2.33;1.48;;;;;;;;;;7307070;19;140941;-74
2023/07/18 19:21:34;;;;;;;3.92;1.77;;;;;;;;;;7305913;19;141897;-74
2023/07/18 19:24:01;;;;;;;3.35;1.75;;;;;;;;;;7304746;19;140831;-74
2023/07/18 19:26:28;;;;;;;2.78;1.95;;;;;;;;;;7306484;19;140424;-74
2023/07/18 19:28:56;;;;;;;1.52;1.42;;;;;;;;;;7306339;19;140406;-74
2023/07/18 19:31:23;;;;;;;2.15;1.42;;;;;;;;;;7306498;19;141536;-73
2023/07/18 19:33:50;;;;;;;2.30;1.50;;;;;;;;;;7305909;19;141830;-74
2023/07/18 19:36:17;;;;;;;2.38;1.67;;;;;;;;;;7306040;19;140535;-74
2023/07/18 19:38:44;;;;;;;2.67;1.55;;;;;;;;;;7306333;19;140487;-74
2023/07/18 19:41:11;;;;;;;1.83;1.48;;;;;;;;;;7305752;19;141341;-74
2023/07/18 19:43:38;;;;;;;3.33;1.52;;;;;;;;;;7305823;19;142737;-75
2023/07/18 19:46:05;;;;;;;4.05;1.70;;;;;;;;;;7304870;19;140806;-73
2023/07/18 19:48:32;;;;;;;3.42;1.63;;;;;;;;;;7306537;19;140538;-74
2023/07/18 19:51:00;;;;;;;2.13;1.80;;;;;;;;;;7306234;19;140520;-73
2023/07/18 19:53:27;;;;;;;3.33;1.60;;;;;;;;;;7305146;19;141880;-73
2023/07/18 19:55:55;;;;;;;3.13;1.63;;;;;;;;;;7305163;19;140519;-73
2023/07/18 19:58:22;;;;;;;2.50;1.60;;;;;;;;;;7304181;19;140782;-73
2023/07/18 20:00:49;;;;;;;3.20;1.58;;;;;;;;;;7305404;19;141404;-73
2023/07/18 20:03:16;;;;;;;4.35;1.60;;;;;;;;;;7304775;19;141268;-74